sensor_id;sensor_type;location;lat;lon;timestamp;temperature;humidity
33067;DHT22;19428;49.024;8.366;2022-07-29T00:00:35;21.50;99.90
33067;DHT22;19428;49.024;8.366;2022-07-29T00:03:02;21.50;99.90
33067;DHT22;19428;49.024;8.366;2022-07-29T00:05:28;21.40;99.90
33067;DHT22;19428;49.024;8.366;2022-07-29T00:07:53;21.40;99.90
33067;DHT22;19428;49.024;8.366;2022-07-29T00:10:19;21.40;99.90
33067;DHT22;19428;49.024;8.366;2022-07-29T00:12:45;21.40;99.90
33067;DHT22;19428;49.024;8.366;2022-07-29T00:15:10;21.30;99.90
33067;DHT22;19428;49.024;8.366;2022-07-29T00:17:36;21.30;99.90
33067;DHT22;19428;49.024;8.366;2022-07-29T00:20:01;21.20;99.90
33067;DHT22;19428;49.024;8.366;2022-07-29T00:22:27;21.30;99.90
33067;DHT22;19428;49.024;8.366;2022-07-29T00:24:53;21.10;99.90
33067;DHT22;19428;49.024;8.366;2022-07-29T00:27:18;21.10;99.90
33067;DHT22;19428;49.024;8.366;2022-07-29T00:29:44;21.10;99.90
33067;DHT22;19428;49.024;8.366;2022-07-29T00:32:10;21.00;99.90
33067;DHT22;19428;49.024;8.366;2022-07-29T00:34:35;21.00;99.90
33067;DHT22;19428;49.024;8.366;2022-07-29T00:37:27;20.90;99.90
33067;DHT22;19428;49.024;8.366;2022-07-29T00:39:53;21.00;99.90
33067;DHT22;19428;49.024;8.366;2022-07-29T00:42:18;21.00;99.90
33067;DHT22;19428;49.024;8.366;2022-07-29T00:44:44;20.90;99.90
33067;DHT22;19428;49.024;8.366;2022-07-29T00:47:11;20.60;99.90
33067;DHT22;19428;49.024;8.366;2022-07-29T00:49:38;20.50;99.90
33067;DHT22;19428;49.024;8.366;2022-07-29T00:52:05;20.50;99.90
33067;DHT22;19428;49.024;8.366;2022-07-29T00:54:32;20.50;99.90
33067;DHT22;19428;49.024;8.366;2022-07-29T00:56:58;20.40;99.90
33067;DHT22;19428;49.024;8.366;2022-07-29T00:59:25;20.50;99.90
33067;DHT22;19428;49.024;8.366;2022-07-29T01:01:52;20.40;99.90
33067;DHT22;19428;49.024;8.366;2022-07-29T01:04:18;20.40;99.90
33067;DHT22;19428;49.024;8.366;2022-07-29T01:06:43;20.20;99.90
33067;DHT22;19428;49.024;8.366;2022-07-29T01:09:09;20.30;99.90
33067;DHT22;19428;49.024;8.366;2022-07-29T01:11:36;20.20;99.90
33067;DHT22;19428;49.024;8.366;2022-07-29T01:14:02;20.20;99.90
33067;DHT22;19428;49.024;8.366;2022-07-29T01:16:32;20.10;99.90
33067;DHT22;19428;49.024;8.366;2022-07-29T01:19:07;19.90;99.90
33067;DHT22;19428;49.024;8.366;2022-07-29T01:24:33;20.00;99.90
33067;DHT22;19428;49.024;8.366;2022-07-29T01:30:05;19.80;99.90
33067;DHT22;19428;49.024;8.366;2022-07-29T01:32:33;19.80;99.90
33067;DHT22;19428;49.024;8.366;2022-07-29T01:35:20;19.50;99.90
33067;DHT22;19428;49.024;8.366;2022-07-29T01:38:03;19.40;99.90
33067;DHT22;19428;49.024;8.366;2022-07-29T01:40:40;19.50;99.90
33067;DHT22;19428;49.024;8.366;2022-07-29T01:43:19;19.80;99.90
33067;DHT22;19428;49.024;8.366;2022-07-29T01:45:49;19.90;99.90
33067;DHT22;19428;49.024;8.366;2022-07-29T01:48:26;20.00;99.90
33067;DHT22;19428;49.024;8.366;2022-07-29T01:51:16;19.70;99.90
33067;DHT22;19428;49.024;8.366;2022-07-29T01:56:28;19.40;99.90
33067;DHT22;19428;49.024;8.366;2022-07-29T01:58:57;19.50;99.90
33067;DHT22;19428;49.024;8.366;2022-07-29T02:01:24;19.60;99.90
33067;DHT22;19428;49.024;8.366;2022-07-29T02:03:53;19.60;99.90
33067;DHT22;19428;49.024;8.366;2022-07-29T02:06:21;19.50;99.90
33067;DHT22;19428;49.024;8.366;2022-07-29T02:08:48;19.60;99.90
33067;DHT22;19428;49.024;8.366;2022-07-29T02:11:15;19.60;99.90
33067;DHT22;19428;49.024;8.366;2022-07-29T02:13:43;19.60;99.90
33067;DHT22;19428;49.024;8.366;2022-07-29T02:16:09;19.60;99.90
33067;DHT22;19428;49.024;8.366;2022-07-29T02:18:37;19.70;99.90
33067;DHT22;19428;49.024;8.366;2022-07-29T02:21:04;19.60;99.90
33067;DHT22;19428;49.024;8.366;2022-07-29T02:23:31;19.70;99.90
33067;DHT22;19428;49.024;8.366;2022-07-29T02:25:59;19.60;99.90
33067;DHT22;19428;49.024;8.366;2022-07-29T02:28:27;19.60;99.90
33067;DHT22;19428;49.024;8.366;2022-07-29T02:30:58;19.70;99.90
33067;DHT22;19428;49.024;8.366;2022-07-29T02:33:25;19.70;99.90
33067;DHT22;19428;49.024;8.366;2022-07-29T02:35:52;19.50;99.90
33067;DHT22;19428;49.024;8.366;2022-07-29T02:38:18;19.30;99.90
33067;DHT22;19428;49.024;8.366;2022-07-29T02:41:35;19.20;99.90
33067;DHT22;19428;49.024;8.366;2022-07-29T02:44:06;19.10;99.90
33067;DHT22;19428;49.024;8.366;2022-07-29T02:46:36;19.00;99.90
33067;DHT22;19428;49.024;8.366;2022-07-29T02:52:19;19.20;99.90
33067;DHT22;19428;49.024;8.366;2022-07-29T02:54:53;19.30;99.90
33067;DHT22;19428;49.024;8.366;2022-07-29T02:57:37;19.40;99.90
33067;DHT22;19428;49.024;8.366;2022-07-29T03:00:06;18.90;99.90
33067;DHT22;19428;49.024;8.366;2022-07-29T03:02:35;18.70;99.90
33067;DHT22;19428;49.024;8.366;2022-07-29T03:05:03;18.60;99.90
33067;DHT22;19428;49.024;8.366;2022-07-29T03:07:30;18.60;99.90
33067;DHT22;19428;49.024;8.366;2022-07-29T03:09:56;18.80;99.90
33067;DHT22;19428;49.024;8.366;2022-07-29T03:12:23;18.90;99.90
33067;DHT22;19428;49.024;8.366;2022-07-29T03:14:49;18.90;99.90
33067;DHT22;19428;49.024;8.366;2022-07-29T03:17:15;18.90;99.90
33067;DHT22;19428;49.024;8.366;2022-07-29T03:19:42;18.70;99.90
33067;DHT22;19428;49.024;8.366;2022-07-29T03:22:08;18.80;99.90
33067;DHT22;19428;49.024;8.366;2022-07-29T03:24:35;18.90;99.90
33067;DHT22;19428;49.024;8.366;2022-07-29T03:27:02;18.90;99.90
33067;DHT22;19428;49.024;8.366;2022-07-29T03:29:28;19.00;99.90
33067;DHT22;19428;49.024;8.366;2022-07-29T03:31:55;19.10;99.90
33067;DHT22;19428;49.024;8.366;2022-07-29T03:34:20;19.10;99.90
33067;DHT22;19428;49.024;8.366;2022-07-29T03:36:46;18.80;99.90
33067;DHT22;19428;49.024;8.366;2022-07-29T03:39:15;18.50;99.90
33067;DHT22;19428;49.024;8.366;2022-07-29T03:41:42;18.40;99.90
33067;DHT22;19428;49.024;8.366;2022-07-29T03:44:09;18.50;99.90
33067;DHT22;19428;49.024;8.366;2022-07-29T03:46:38;18.50;99.90
33067;DHT22;19428;49.024;8.366;2022-07-29T03:49:06;18.50;99.90
33067;DHT22;19428;49.024;8.366;2022-07-29T03:51:34;18.70;99.90
33067;DHT22;19428;49.024;8.366;2022-07-29T03:54:02;18.90;99.90
33067;DHT22;19428;49.024;8.366;2022-07-29T03:56:28;19.00;99.90
33067;DHT22;19428;49.024;8.366;2022-07-29T03:58:54;18.90;99.90
33067;DHT22;19428;49.024;8.366;2022-07-29T04:01:21;19.00;99.90
33067;DHT22;19428;49.024;8.366;2022-07-29T04:03:48;18.90;99.90
33067;DHT22;19428;49.024;8.366;2022-07-29T04:06:13;18.70;99.90
33067;DHT22;19428;49.024;8.366;2022-07-29T04:08:39;18.60;99.90
33067;DHT22;19428;49.024;8.366;2022-07-29T04:11:05;18.30;99.90
33067;DHT22;19428;49.024;8.366;2022-07-29T04:13:32;18.30;99.90
33067;DHT22;19428;49.024;8.366;2022-07-29T04:15:57;18.30;99.90
33067;DHT22;19428;49.024;8.366;2022-07-29T04:18:23;18.20;99.90
33067;DHT22;19428;49.024;8.366;2022-07-29T04:20:49;18.40;99.90
33067;DHT22;19428;49.024;8.366;2022-07-29T04:23:14;18.30;99.90
33067;DHT22;19428;49.024;8.366;2022-07-29T04:25:41;18.40;99.90
33067;DHT22;19428;49.024;8.366;2022-07-29T04:28:08;18.50;99.90
33067;DHT22;19428;49.024;8.366;2022-07-29T04:30:34;18.60;99.90
33067;DHT22;19428;49.024;8.366;2022-07-29T04:33:01;18.60;99.90
33067;DHT22;19428;49.024;8.366;2022-07-29T04:35:28;18.70;99.90
33067;DHT22;19428;49.024;8.366;2022-07-29T04:37:54;18.60;99.90
33067;DHT22;19428;49.024;8.366;2022-07-29T04:40:19;18.30;99.90
33067;DHT22;19428;49.024;8.366;2022-07-29T04:42:45;18.40;99.90
33067;DHT22;19428;49.024;8.366;2022-07-29T04:45:10;18.60;99.90
33067;DHT22;19428;49.024;8.366;2022-07-29T04:47:36;19.00;99.90
33067;DHT22;19428;49.024;8.366;2022-07-29T04:50:02;19.30;99.90
33067;DHT22;19428;49.024;8.366;2022-07-29T04:52:28;19.50;99.90
33067;DHT22;19428;49.024;8.366;2022-07-29T04:54:54;19.50;99.90
33067;DHT22;19428;49.024;8.366;2022-07-29T04:57:19;19.50;99.90
33067;DHT22;19428;49.024;8.366;2022-07-29T04:59:45;19.40;99.90
33067;DHT22;19428;49.024;8.366;2022-07-29T05:02:10;19.40;99.90
33067;DHT22;19428;49.024;8.366;2022-07-29T05:04:36;19.40;99.90
33067;DHT22;19428;49.024;8.366;2022-07-29T05:07:01;19.30;99.90
33067;DHT22;19428;49.024;8.366;2022-07-29T05:09:27;19.40;99.90
33067;DHT22;19428;49.024;8.366;2022-07-29T05:11:52;19.40;99.90
33067;DHT22;19428;49.024;8.366;2022-07-29T05:14:18;19.30;99.90
33067;DHT22;19428;49.024;8.366;2022-07-29T05:16:43;19.30;99.90
33067;DHT22;19428;49.024;8.366;2022-07-29T05:19:09;19.50;99.90
33067;DHT22;19428;49.024;8.366;2022-07-29T05:21:35;19.80;99.90
33067;DHT22;19428;49.024;8.366;2022-07-29T05:24:01;19.90;99.90
33067;DHT22;19428;49.024;8.366;2022-07-29T05:26:26;19.90;99.90
33067;DHT22;19428;49.024;8.366;2022-07-29T05:28:52;19.90;99.90
33067;DHT22;19428;49.024;8.366;2022-07-29T05:31:19;20.00;99.90
33067;DHT22;19428;49.024;8.366;2022-07-29T05:33:44;20.10;99.90
33067;DHT22;19428;49.024;8.366;2022-07-29T05:36:10;20.20;99.90
33067;DHT22;19428;49.024;8.366;2022-07-29T05:38:37;20.60;99.90
33067;DHT22;19428;49.024;8.366;2022-07-29T05:41:03;20.80;99.90
33067;DHT22;19428;49.024;8.366;2022-07-29T05:43:29;21.00;99.90
33067;DHT22;19428;49.024;8.366;2022-07-29T05:45:55;20.60;99.90
33067;DHT22;19428;49.024;8.366;2022-07-29T05:48:21;20.50;99.90
33067;DHT22;19428;49.024;8.366;2022-07-29T05:50:47;20.50;99.90
33067;DHT22;19428;49.024;8.366;2022-07-29T05:53:12;20.60;99.90
33067;DHT22;19428;49.024;8.366;2022-07-29T05:55:38;20.40;99.90
33067;DHT22;19428;49.024;8.366;2022-07-29T05:58:03;20.40;99.90
33067;DHT22;19428;49.024;8.366;2022-07-29T06:00:29;20.20;99.90
33067;DHT22;19428;49.024;8.366;2022-07-29T06:02:55;20.30;99.90
33067;DHT22;19428;49.024;8.366;2022-07-29T06:05:22;20.30;99.90
33067;DHT22;19428;49.024;8.366;2022-07-29T06:07:48;20.30;99.90
33067;DHT22;19428;49.024;8.366;2022-07-29T06:10:14;20.60;99.90
33067;DHT22;19428;49.024;8.366;2022-07-29T06:12:40;20.70;99.90
33067;DHT22;19428;49.024;8.366;2022-07-29T06:15:06;20.70;99.90
33067;DHT22;19428;49.024;8.366;2022-07-29T06:17:32;20.40;99.90
33067;DHT22;19428;49.024;8.366;2022-07-29T06:19:57;20.40;99.90
33067;DHT22;19428;49.024;8.366;2022-07-29T06:22:23;20.60;99.90
33067;DHT22;19428;49.024;8.366;2022-07-29T06:24:49;20.50;99.90
33067;DHT22;19428;49.024;8.366;2022-07-29T06:27:15;20.40;99.90
33067;DHT22;19428;49.024;8.366;2022-07-29T06:29:41;20.40;99.90
33067;DHT22;19428;49.024;8.366;2022-07-29T06:32:07;20.20;99.90
33067;DHT22;19428;49.024;8.366;2022-07-29T06:34:35;20.20;99.90
33067;DHT22;19428;49.024;8.366;2022-07-29T06:37:00;20.60;99.90
33067;DHT22;19428;49.024;8.366;2022-07-29T06:39:30;20.90;99.90
33067;DHT22;19428;49.024;8.366;2022-07-29T06:41:56;21.40;99.90
33067;DHT22;19428;49.024;8.366;2022-07-29T06:44:21;21.60;99.90
33067;DHT22;19428;49.024;8.366;2022-07-29T06:46:47;21.60;99.90
33067;DHT22;19428;49.024;8.366;2022-07-29T06:49:15;21.20;99.90
33067;DHT22;19428;49.024;8.366;2022-07-29T06:51:41;21.50;99.90
33067;DHT22;19428;49.024;8.366;2022-07-29T06:54:06;21.50;99.90
33067;DHT22;19428;49.024;8.366;2022-07-29T06:56:33;21.40;99.90
33067;DHT22;19428;49.024;8.366;2022-07-29T06:59:00;21.50;99.90
33067;DHT22;19428;49.024;8.366;2022-07-29T07:01:26;21.40;99.90
33067;DHT22;19428;49.024;8.366;2022-07-29T07:03:52;21.30;99.90
33067;DHT22;19428;49.024;8.366;2022-07-29T07:06:17;21.30;99.90
33067;DHT22;19428;49.024;8.366;2022-07-29T07:08:43;21.90;99.90
33067;DHT22;19428;49.024;8.366;2022-07-29T07:11:09;21.90;99.90
33067;DHT22;19428;49.024;8.366;2022-07-29T07:13:34;22.00;99.90
33067;DHT22;19428;49.024;8.366;2022-07-29T07:16:03;21.90;99.90
33067;DHT22;19428;49.024;8.366;2022-07-29T07:18:29;22.20;99.90
33067;DHT22;19428;49.024;8.366;2022-07-29T07:20:56;21.80;99.90
33067;DHT22;19428;49.024;8.366;2022-07-29T07:23:22;21.90;99.90
33067;DHT22;19428;49.024;8.366;2022-07-29T07:25:47;22.20;99.90
33067;DHT22;19428;49.024;8.366;2022-07-29T07:28:13;22.20;99.90
33067;DHT22;19428;49.024;8.366;2022-07-29T07:30:39;22.30;99.90
33067;DHT22;19428;49.024;8.366;2022-07-29T07:33:05;22.60;99.90
33067;DHT22;19428;49.024;8.366;2022-07-29T07:35:31;22.30;99.90
33067;DHT22;19428;49.024;8.366;2022-07-29T07:37:56;22.20;99.90
33067;DHT22;19428;49.024;8.366;2022-07-29T07:40:22;22.30;99.90
33067;DHT22;19428;49.024;8.366;2022-07-29T07:42:48;22.30;99.90
33067;DHT22;19428;49.024;8.366;2022-07-29T07:45:13;22.40;99.90
33067;DHT22;19428;49.024;8.366;2022-07-29T07:47:39;22.20;99.90
33067;DHT22;19428;49.024;8.366;2022-07-29T07:50:06;22.50;99.90
33067;DHT22;19428;49.024;8.366;2022-07-29T07:52:32;22.60;99.90
33067;DHT22;19428;49.024;8.366;2022-07-29T07:54:58;23.20;99.90
33067;DHT22;19428;49.024;8.366;2022-07-29T07:57:23;22.80;99.90
33067;DHT22;19428;49.024;8.366;2022-07-29T07:59:49;22.80;99.90
33067;DHT22;19428;49.024;8.366;2022-07-29T08:02:14;22.70;99.90
33067;DHT22;19428;49.024;8.366;2022-07-29T08:04:40;22.80;99.90
33067;DHT22;19428;49.024;8.366;2022-07-29T08:07:07;23.20;99.90
33067;DHT22;19428;49.024;8.366;2022-07-29T08:09:33;23.60;99.90
33067;DHT22;19428;49.024;8.366;2022-07-29T08:11:59;23.50;99.90
33067;DHT22;19428;49.024;8.366;2022-07-29T08:14:29;23.20;99.90
33067;DHT22;19428;49.024;8.366;2022-07-29T08:16:55;22.90;99.90
33067;DHT22;19428;49.024;8.366;2022-07-29T08:19:21;23.00;99.90
33067;DHT22;19428;49.024;8.366;2022-07-29T08:21:46;23.20;99.90
33067;DHT22;19428;49.024;8.366;2022-07-29T08:24:12;23.00;99.90
33067;DHT22;19428;49.024;8.366;2022-07-29T08:26:56;23.10;99.90
33067;DHT22;19428;49.024;8.366;2022-07-29T08:29:21;22.90;99.90
33067;DHT22;19428;49.024;8.366;2022-07-29T08:31:47;23.30;99.90
33067;DHT22;19428;49.024;8.366;2022-07-29T08:34:12;23.60;99.90
33067;DHT22;19428;49.024;8.366;2022-07-29T08:36:38;23.70;99.90
33067;DHT22;19428;49.024;8.366;2022-07-29T08:39:04;23.90;99.90
33067;DHT22;19428;49.024;8.366;2022-07-29T08:41:30;23.60;99.90
33067;DHT22;19428;49.024;8.366;2022-07-29T08:43:56;23.80;99.90
33067;DHT22;19428;49.024;8.366;2022-07-29T08:46:22;24.00;99.90
33067;DHT22;19428;49.024;8.366;2022-07-29T08:48:48;24.10;99.90
33067;DHT22;19428;49.024;8.366;2022-07-29T08:51:20;24.30;99.90
33067;DHT22;19428;49.024;8.366;2022-07-29T08:53:47;24.40;99.90
33067;DHT22;19428;49.024;8.366;2022-07-29T08:56:17;24.50;99.90
33067;DHT22;19428;49.024;8.366;2022-07-29T08:58:45;24.20;99.90
33067;DHT22;19428;49.024;8.366;2022-07-29T09:01:13;24.30;99.90
33067;DHT22;19428;49.024;8.366;2022-07-29T09:03:40;24.40;99.90
33067;DHT22;19428;49.024;8.366;2022-07-29T09:06:07;24.60;99.90
33067;DHT22;19428;49.024;8.366;2022-07-29T09:08:33;24.90;99.90
33067;DHT22;19428;49.024;8.366;2022-07-29T09:11:01;24.60;99.90
33067;DHT22;19428;49.024;8.366;2022-07-29T09:13:27;24.70;99.90
33067;DHT22;19428;49.024;8.366;2022-07-29T09:15:52;24.70;99.90
33067;DHT22;19428;49.024;8.366;2022-07-29T09:18:41;24.50;99.90
33067;DHT22;19428;49.024;8.366;2022-07-29T09:21:09;24.50;99.90
33067;DHT22;19428;49.024;8.366;2022-07-29T09:24:08;24.60;99.90
33067;DHT22;19428;49.024;8.366;2022-07-29T09:26:37;24.80;99.90
33067;DHT22;19428;49.024;8.366;2022-07-29T09:29:14;24.80;99.90
33067;DHT22;19428;49.024;8.366;2022-07-29T09:31:41;25.10;99.90
33067;DHT22;19428;49.024;8.366;2022-07-29T09:34:09;24.80;99.90
33067;DHT22;19428;49.024;8.366;2022-07-29T09:37:00;25.00;99.90
33067;DHT22;19428;49.024;8.366;2022-07-29T09:39:35;25.30;99.90
33067;DHT22;19428;49.024;8.366;2022-07-29T09:42:04;25.30;99.90
33067;DHT22;19428;49.024;8.366;2022-07-29T09:44:47;25.30;99.90
33067;DHT22;19428;49.024;8.366;2022-07-29T09:47:14;25.30;99.90
33067;DHT22;19428;49.024;8.366;2022-07-29T09:49:57;25.40;99.90
33067;DHT22;19428;49.024;8.366;2022-07-29T09:52:25;25.70;99.90
33067;DHT22;19428;49.024;8.366;2022-07-29T09:54:51;25.70;99.90
33067;DHT22;19428;49.024;8.366;2022-07-29T09:57:26;25.60;99.90
33067;DHT22;19428;49.024;8.366;2022-07-29T10:02:31;25.50;99.90
33067;DHT22;19428;49.024;8.366;2022-07-29T10:04:57;25.50;99.90
33067;DHT22;19428;49.024;8.366;2022-07-29T10:07:24;25.60;99.90
33067;DHT22;19428;49.024;8.366;2022-07-29T10:09:55;25.70;99.90
33067;DHT22;19428;49.024;8.366;2022-07-29T10:12:21;26.30;99.90
33067;DHT22;19428;49.024;8.366;2022-07-29T10:14:47;26.20;99.40
33067;DHT22;19428;49.024;8.366;2022-07-29T10:17:15;26.20;99.50
33067;DHT22;19428;49.024;8.366;2022-07-29T10:19:40;26.40;99.90
33067;DHT22;19428;49.024;8.366;2022-07-29T10:22:08;26.40;98.60
33067;DHT22;19428;49.024;8.366;2022-07-29T10:24:35;26.70;99.00
33067;DHT22;19428;49.024;8.366;2022-07-29T10:27:07;26.40;98.20
33067;DHT22;19428;49.024;8.366;2022-07-29T10:29:33;26.50;97.70
33067;DHT22;19428;49.024;8.366;2022-07-29T10:32:16;26.70;97.60
33067;DHT22;19428;49.024;8.366;2022-07-29T10:34:57;26.70;97.70
33067;DHT22;19428;49.024;8.366;2022-07-29T10:43:17;27.10;96.20
33067;DHT22;19428;49.024;8.366;2022-07-29T10:45:46;27.00;96.00
33067;DHT22;19428;49.024;8.366;2022-07-29T10:48:13;26.80;95.50
33067;DHT22;19428;49.024;8.366;2022-07-29T10:50:57;26.90;95.20
33067;DHT22;19428;49.024;8.366;2022-07-29T10:53:24;27.00;95.20
33067;DHT22;19428;49.024;8.366;2022-07-29T10:55:51;27.20;94.90
33067;DHT22;19428;49.024;8.366;2022-07-29T10:58:22;27.20;95.20
33067;DHT22;19428;49.024;8.366;2022-07-29T11:00:53;27.50;95.20
33067;DHT22;19428;49.024;8.366;2022-07-29T11:03:45;28.00;93.80
33067;DHT22;19428;49.024;8.366;2022-07-29T11:06:11;27.40;94.00
33067;DHT22;19428;49.024;8.366;2022-07-29T11:08:37;27.30;94.30
33067;DHT22;19428;49.024;8.366;2022-07-29T11:13:51;27.70;92.90
33067;DHT22;19428;49.024;8.366;2022-07-29T11:16:19;27.70;93.20
33067;DHT22;19428;49.024;8.366;2022-07-29T11:21:36;27.70;92.50
33067;DHT22;19428;49.024;8.366;2022-07-29T11:24:32;28.00;92.00
33067;DHT22;19428;49.024;8.366;2022-07-29T11:27:12;28.30;92.00
33067;DHT22;19428;49.024;8.366;2022-07-29T11:29:40;28.50;92.20
33067;DHT22;19428;49.024;8.366;2022-07-29T11:32:13;28.40;91.20
33067;DHT22;19428;49.024;8.366;2022-07-29T11:34:45;28.00;90.70
33067;DHT22;19428;49.024;8.366;2022-07-29T11:44:59;27.60;91.40
33067;DHT22;19428;49.024;8.366;2022-07-29T11:47:31;27.60;91.10
33067;DHT22;19428;49.024;8.366;2022-07-29T11:49:59;27.60;91.20
33067;DHT22;19428;49.024;8.366;2022-07-29T11:52:46;27.70;90.80
33067;DHT22;19428;49.024;8.366;2022-07-29T11:55:20;27.90;90.60
33067;DHT22;19428;49.024;8.366;2022-07-29T11:57:48;29.80;89.80
33067;DHT22;19428;49.024;8.366;2022-07-29T12:00:35;30.40;86.50
33067;DHT22;19428;49.024;8.366;2022-07-29T12:03:05;28.80;85.00
33067;DHT22;19428;49.024;8.366;2022-07-29T12:05:51;27.90;87.20
33067;DHT22;19428;49.024;8.366;2022-07-29T12:08:21;27.70;87.60
33067;DHT22;19428;49.024;8.366;2022-07-29T12:10:49;27.80;89.00
33067;DHT22;19428;49.024;8.366;2022-07-29T12:13:18;27.80;86.70
33067;DHT22;19428;49.024;8.366;2022-07-29T12:15:52;27.80;87.80
33067;DHT22;19428;49.024;8.366;2022-07-29T12:18:19;28.40;87.90
33067;DHT22;19428;49.024;8.366;2022-07-29T12:20:46;28.60;87.80
33067;DHT22;19428;49.024;8.366;2022-07-29T12:23:12;28.50;85.50
33067;DHT22;19428;49.024;8.366;2022-07-29T12:25:38;28.50;83.40
33067;DHT22;19428;49.024;8.366;2022-07-29T12:28:06;28.30;82.60
33067;DHT22;19428;49.024;8.366;2022-07-29T12:35:39;28.50;82.10
33067;DHT22;19428;49.024;8.366;2022-07-29T12:38:06;28.50;80.70
33067;DHT22;19428;49.024;8.366;2022-07-29T12:40:31;28.70;78.10
33067;DHT22;19428;49.024;8.366;2022-07-29T12:45:40;28.60;75.40
33067;DHT22;19428;49.024;8.366;2022-07-29T12:48:06;28.60;76.40
33067;DHT22;19428;49.024;8.366;2022-07-29T12:50:56;28.60;74.40
33067;DHT22;19428;49.024;8.366;2022-07-29T12:53:22;28.70;75.90
33067;DHT22;19428;49.024;8.366;2022-07-29T12:55:50;28.90;74.30
33067;DHT22;19428;49.024;8.366;2022-07-29T13:01:10;28.50;75.90
33067;DHT22;19428;49.024;8.366;2022-07-29T13:03:49;28.70;75.90
33067;DHT22;19428;49.024;8.366;2022-07-29T13:06:30;28.80;77.20
33067;DHT22;19428;49.024;8.366;2022-07-29T13:09:14;28.40;76.90
33067;DHT22;19428;49.024;8.366;2022-07-29T13:14:08;28.60;77.60
33067;DHT22;19428;49.024;8.366;2022-07-29T13:16:34;28.10;77.00
33067;DHT22;19428;49.024;8.366;2022-07-29T13:19:11;28.10;76.40
33067;DHT22;19428;49.024;8.366;2022-07-29T13:21:38;28.40;76.90
33067;DHT22;19428;49.024;8.366;2022-07-29T13:24:06;28.50;76.40
33067;DHT22;19428;49.024;8.366;2022-07-29T13:26:31;28.30;74.80
33067;DHT22;19428;49.024;8.366;2022-07-29T13:28:57;28.10;74.80
33067;DHT22;19428;49.024;8.366;2022-07-29T13:31:23;28.20;76.50
33067;DHT22;19428;49.024;8.366;2022-07-29T13:33:49;28.30;75.80
33067;DHT22;19428;49.024;8.366;2022-07-29T13:36:14;28.30;75.20
33067;DHT22;19428;49.024;8.366;2022-07-29T13:38:40;27.90;74.90
33067;DHT22;19428;49.024;8.366;2022-07-29T13:41:05;27.80;73.70
33067;DHT22;19428;49.024;8.366;2022-07-29T13:43:31;28.10;75.40
33067;DHT22;19428;49.024;8.366;2022-07-29T13:45:56;28.20;73.60
33067;DHT22;19428;49.024;8.366;2022-07-29T13:48:22;28.20;73.60
33067;DHT22;19428;49.024;8.366;2022-07-29T13:50:48;28.20;73.40
33067;DHT22;19428;49.024;8.366;2022-07-29T13:53:13;28.30;72.10
33067;DHT22;19428;49.024;8.366;2022-07-29T13:55:40;28.00;71.30
33067;DHT22;19428;49.024;8.366;2022-07-29T13:58:06;28.30;70.90
33067;DHT22;19428;49.024;8.366;2022-07-29T14:00:31;28.00;70.30
33067;DHT22;19428;49.024;8.366;2022-07-29T14:02:57;28.40;69.90
33067;DHT22;19428;49.024;8.366;2022-07-29T14:05:22;28.30;68.90
33067;DHT22;19428;49.024;8.366;2022-07-29T14:07:48;28.60;69.20
33067;DHT22;19428;49.024;8.366;2022-07-29T14:10:14;28.80;68.70
33067;DHT22;19428;49.024;8.366;2022-07-29T14:12:39;28.80;68.60
33067;DHT22;19428;49.024;8.366;2022-07-29T14:15:07;28.30;67.50
33067;DHT22;19428;49.024;8.366;2022-07-29T14:17:34;28.20;68.20
33067;DHT22;19428;49.024;8.366;2022-07-29T14:20:00;28.30;66.70
33067;DHT22;19428;49.024;8.366;2022-07-29T14:22:26;28.30;65.80
33067;DHT22;19428;49.024;8.366;2022-07-29T14:24:51;28.10;65.40
33067;DHT22;19428;49.024;8.366;2022-07-29T14:27:17;28.10;63.70
33067;DHT22;19428;49.024;8.366;2022-07-29T14:29:43;28.10;64.80
33067;DHT22;19428;49.024;8.366;2022-07-29T14:32:09;28.20;64.00
33067;DHT22;19428;49.024;8.366;2022-07-29T14:34:36;28.40;63.90
33067;DHT22;19428;49.024;8.366;2022-07-29T14:37:02;28.70;62.80
33067;DHT22;19428;49.024;8.366;2022-07-29T14:39:28;28.50;61.10
33067;DHT22;19428;49.024;8.366;2022-07-29T14:41:54;28.20;62.40
33067;DHT22;19428;49.024;8.366;2022-07-29T14:44:20;28.20;61.60
33067;DHT22;19428;49.024;8.366;2022-07-29T14:46:45;28.20;60.70
33067;DHT22;19428;49.024;8.366;2022-07-29T14:49:11;28.10;61.50
33067;DHT22;19428;49.024;8.366;2022-07-29T14:51:36;28.50;62.50
33067;DHT22;19428;49.024;8.366;2022-07-29T14:54:02;28.50;60.40
33067;DHT22;19428;49.024;8.366;2022-07-29T14:56:28;28.30;59.90
33067;DHT22;19428;49.024;8.366;2022-07-29T14:58:56;28.10;61.80
33067;DHT22;19428;49.024;8.366;2022-07-29T15:01:22;28.30;61.00
33067;DHT22;19428;49.024;8.366;2022-07-29T15:03:48;28.20;59.70
33067;DHT22;19428;49.024;8.366;2022-07-29T15:06:14;28.20;59.30
33067;DHT22;19428;49.024;8.366;2022-07-29T15:08:39;28.30;59.40
33067;DHT22;19428;49.024;8.366;2022-07-29T15:11:05;28.70;59.90
33067;DHT22;19428;49.024;8.366;2022-07-29T15:13:31;28.40;57.70
33067;DHT22;19428;49.024;8.366;2022-07-29T15:15:56;28.40;58.60
33067;DHT22;19428;49.024;8.366;2022-07-29T15:18:22;28.60;59.00
33067;DHT22;19428;49.024;8.366;2022-07-29T15:20:47;28.40;57.30
33067;DHT22;19428;49.024;8.366;2022-07-29T15:23:13;28.30;57.80
33067;DHT22;19428;49.024;8.366;2022-07-29T15:25:39;28.20;56.00
33067;DHT22;19428;49.024;8.366;2022-07-29T15:28:05;28.30;57.90
33067;DHT22;19428;49.024;8.366;2022-07-29T15:30:33;28.60;57.40
33067;DHT22;19428;49.024;8.366;2022-07-29T15:33:02;28.80;57.90
33067;DHT22;19428;49.024;8.366;2022-07-29T15:35:28;28.90;58.00
33067;DHT22;19428;49.024;8.366;2022-07-29T15:37:54;28.90;57.50
33067;DHT22;19428;49.024;8.366;2022-07-29T15:40:19;29.10;58.20
33067;DHT22;19428;49.024;8.366;2022-07-29T15:42:45;28.80;55.90
33067;DHT22;19428;49.024;8.366;2022-07-29T15:45:10;29.00;56.80
33067;DHT22;19428;49.024;8.366;2022-07-29T15:47:36;28.90;57.20
33067;DHT22;19428;49.024;8.366;2022-07-29T15:50:03;29.30;56.90
33067;DHT22;19428;49.024;8.366;2022-07-29T15:52:29;29.00;55.40
33067;DHT22;19428;49.024;8.366;2022-07-29T15:54:55;28.90;55.50
33067;DHT22;19428;49.024;8.366;2022-07-29T15:57:22;28.80;54.80
33067;DHT22;19428;49.024;8.366;2022-07-29T15:59:48;28.70;55.10
33067;DHT22;19428;49.024;8.366;2022-07-29T16:02:14;28.50;54.30
33067;DHT22;19428;49.024;8.366;2022-07-29T16:04:39;28.50;54.00
33067;DHT22;19428;49.024;8.366;2022-07-29T16:07:05;28.50;55.00
33067;DHT22;19428;49.024;8.366;2022-07-29T16:09:31;28.50;54.40
33067;DHT22;19428;49.024;8.366;2022-07-29T16:11:57;28.30;53.50
33067;DHT22;19428;49.024;8.366;2022-07-29T16:14:23;28.30;52.60
33067;DHT22;19428;49.024;8.366;2022-07-29T16:16:48;28.30;51.90
33067;DHT22;19428;49.024;8.366;2022-07-29T16:19:14;28.50;52.90
33067;DHT22;19428;49.024;8.366;2022-07-29T16:21:39;28.60;53.20